sensor_id;sensor_type;location;lat;lon;timestamp;pressure;altitude;pressure_sealevel;temperature;humidity
67457;BME280;54319;52.038;4.640;2022-09-09T00:01:48;100781.91;;;14.65;98.11
67457;BME280;54319;52.038;4.640;2022-09-09T00:04:24;100776.75;;;14.62;98.22
67457;BME280;54319;52.038;4.640;2022-09-09T00:07:00;100783.81;;;14.60;98.02
67457;BME280;54319;52.038;4.640;2022-09-09T00:09:35;100783.75;;;14.62;98.28
67457;BME280;54319;52.038;4.640;2022-09-09T00:12:08;100790.00;;;14.59;98.35
67457;BME280;54319;52.038;4.640;2022-09-09T00:14:41;100792.75;;;14.53;98.90
67457;BME280;54319;52.038;4.640;2022-09-09T00:17:19;100784.84;;;14.53;99.23
67457;BME280;54319;52.038;4.640;2022-09-09T00:19:48;100777.88;;;14.52;99.25
67457;BME280;54319;52.038;4.640;2022-09-09T00:22:19;100775.31;;;14.49;99.29
67457;BME280;54319;52.038;4.640;2022-09-09T00:24:51;100768.44;;;14.43;100.00
67457;BME280;54319;52.038;4.640;2022-09-09T00:27:25;100772.94;;;14.40;100.00
67457;BME280;54319;52.038;4.640;2022-09-09T00:29:57;100759.81;;;14.38;100.00
67457;BME280;54319;52.038;4.640;2022-09-09T00:32:28;100757.94;;;14.42;100.00
67457;BME280;54319;52.038;4.640;2022-09-09T00:34:59;100761.66;;;14.35;100.00
67457;BME280;54319;52.038;4.640;2022-09-09T00:37:28;100756.41;;;14.33;100.00
67457;BME280;54319;52.038;4.640;2022-09-09T00:40:00;100758.19;;;14.33;100.00
67457;BME280;54319;52.038;4.640;2022-09-09T00:42:36;100760.84;;;14.33;100.00
67457;BME280;54319;52.038;4.640;2022-09-09T00:45:19;100760.09;;;14.28;100.00
67457;BME280;54319;52.038;4.640;2022-09-09T00:47:51;100756.69;;;14.24;100.00
67457;BME280;54319;52.038;4.640;2022-09-09T00:50:37;100755.00;;;14.21;100.00
67457;BME280;54319;52.038;4.640;2022-09-09T00:53:16;100755.81;;;14.23;100.00
67457;BME280;54319;52.038;4.640;2022-09-09T00:55:50;100756.78;;;14.21;100.00
67457;BME280;54319;52.038;4.640;2022-09-09T00:58:20;100752.47;;;14.18;100.00
67457;BME280;54319;52.038;4.640;2022-09-09T01:00:49;100754.28;;;14.16;100.00
67457;BME280;54319;52.038;4.640;2022-09-09T01:03:25;100758.53;;;14.20;100.00
67457;BME280;54319;52.038;4.640;2022-09-09T01:06:02;100753.44;;;14.14;100.00
67457;BME280;54319;52.038;4.640;2022-09-09T01:11:45;100760.59;;;14.09;100.00
67457;BME280;54319;52.038;4.640;2022-09-09T01:14:25;100765.00;;;14.09;100.00
67457;BME280;54319;52.038;4.640;2022-09-09T01:17:00;100758.03;;;14.08;100.00
67457;BME280;54319;52.038;4.640;2022-09-09T01:19:38;100753.66;;;14.05;100.00
67457;BME280;54319;52.038;4.640;2022-09-09T01:22:11;100744.97;;;14.03;100.00
67457;BME280;54319;52.038;4.640;2022-09-09T01:25:01;100739.72;;;14.03;100.00
67457;BME280;54319;52.038;4.640;2022-09-09T01:27:34;100738.00;;;14.00;100.00
67457;BME280;54319;52.038;4.640;2022-09-09T01:30:05;100737.13;;;14.00;100.00
67457;BME280;54319;52.038;4.640;2022-09-09T01:32:41;100731.00;;;13.99;100.00
67457;BME280;54319;52.038;4.640;2022-09-09T01:35:15;100730.16;;;13.99;100.00
67457;BME280;54319;52.038;4.640;2022-09-09T01:37:49;100722.16;;;14.02;100.00
67457;BME280;54319;52.038;4.640;2022-09-09T01:40:17;100727.38;;;14.03;100.00
67457;BME280;54319;52.038;4.640;2022-09-09T01:42:46;100720.38;;;14.02;100.00
67457;BME280;54319;52.038;4.640;2022-09-09T01:45:13;100724.63;;;14.08;100.00
67457;BME280;54319;52.038;4.640;2022-09-09T01:47:40;100729.88;;;14.10;100.00
67457;BME280;54319;52.038;4.640;2022-09-09T01:50:14;100723.72;;;14.09;100.00
67457;BME280;54319;52.038;4.640;2022-09-09T01:52:42;100722.84;;;14.09;100.00
67457;BME280;54319;52.038;4.640;2022-09-09T01:55:12;100723.81;;;14.06;100.00
67457;BME280;54319;52.038;4.640;2022-09-09T01:57:44;100711.59;;;14.03;100.00
67457;BME280;54319;52.038;4.640;2022-09-09T02:00:19;100723.91;;;14.03;100.00
67457;BME280;54319;52.038;4.640;2022-09-09T02:02:55;100712.31;;;14.09;100.00
67457;BME280;54319;52.038;4.640;2022-09-09T02:05:31;100714.22;;;14.03;100.00
67457;BME280;54319;52.038;4.640;2022-09-09T02:08:05;100716.03;;;14.01;100.00
67457;BME280;54319;52.038;4.640;2022-09-09T02:10:36;100710.78;;;14.00;100.00
67457;BME280;54319;52.038;4.640;2022-09-09T02:13:07;100711.72;;;13.99;100.00
67457;BME280;54319;52.038;4.640;2022-09-09T02:15:42;100709.94;;;13.99;100.00
67457;BME280;54319;52.038;4.640;2022-09-09T02:18:13;100716.09;;;13.98;100.00
67457;BME280;54319;52.038;4.640;2022-09-09T02:20:42;100708.19;;;13.98;100.00
67457;BME280;54319;52.038;4.640;2022-09-09T02:23:11;100705.63;;;13.97;100.00
67457;BME280;54319;52.038;4.640;2022-09-09T02:25:41;100703.72;;;14.02;100.00
67457;BME280;54319;52.038;4.640;2022-09-09T02:28:09;100699.41;;;13.99;100.00
67457;BME280;54319;52.038;4.640;2022-09-09T02:30:44;100701.25;;;13.96;100.00
67457;BME280;54319;52.038;4.640;2022-09-09T02:33:13;100694.31;;;13.92;100.00
67457;BME280;54319;52.038;4.640;2022-09-09T02:35:43;100696.19;;;13.88;100.00
67457;BME280;54319;52.038;4.640;2022-09-09T02:38:15;100690.09;;;13.86;100.00
67457;BME280;54319;52.038;4.640;2022-09-09T02:40:43;100682.22;;;13.85;100.00
67457;BME280;54319;52.038;4.640;2022-09-09T02:43:10;100678.84;;;13.81;100.00
67457;BME280;54319;52.038;4.640;2022-09-09T02:45:44;100681.41;;;13.82;100.00
67457;BME280;54319;52.038;4.640;2022-09-09T02:48:19;100670.69;;;13.90;100.00
67457;BME280;54319;52.038;4.640;2022-09-09T02:50:54;100674.31;;;13.86;100.00
67457;BME280;54319;52.038;4.640;2022-09-09T02:53:24;100674.47;;;13.80;100.00
67457;BME280;54319;52.038;4.640;2022-09-09T02:55:58;100675.44;;;13.76;100.00
67457;BME280;54319;52.038;4.640;2022-09-09T02:58:30;100662.28;;;13.76;100.00
67457;BME280;54319;52.038;4.640;2022-09-09T03:00:59;100669.41;;;13.72;100.00
67457;BME280;54319;52.038;4.640;2022-09-09T03:03:26;100670.41;;;13.68;100.00
67457;BME280;54319;52.038;4.640;2022-09-09T03:05:53;100673.97;;;13.66;100.00
67457;BME280;54319;52.038;4.640;2022-09-09T03:08:20;100666.97;;;13.65;100.00
67457;BME280;54319;52.038;4.640;2022-09-09T03:10:47;100670.56;;;13.62;100.00
67457;BME280;54319;52.038;4.640;2022-09-09T03:13:17;100670.53;;;13.64;100.00
67457;BME280;54319;52.038;4.640;2022-09-09T03:15:44;100674.03;;;13.62;100.00
67457;BME280;54319;52.038;4.640;2022-09-09T03:18:12;100675.88;;;13.59;100.00
67457;BME280;54319;52.038;4.640;2022-09-09T03:20:39;100668.78;;;13.62;100.00
67457;BME280;54319;52.038;4.640;2022-09-09T03:23:07;100669.47;;;13.69;100.00
67457;BME280;54319;52.038;4.640;2022-09-09T03:25:34;100669.47;;;13.69;100.00
67457;BME280;54319;52.038;4.640;2022-09-09T03:28:01;100675.44;;;13.76;100.00
67457;BME280;54319;52.038;4.640;2022-09-09T03:30:28;100666.66;;;13.77;100.00
67457;BME280;54319;52.038;4.640;2022-09-09T03:32:55;100672.06;;;13.72;100.00
67457;BME280;54319;52.038;4.640;2022-09-09T03:35:24;100676.50;;;13.70;100.00
67457;BME280;54319;52.038;4.640;2022-09-09T03:37:51;100674.03;;;13.62;100.00
67457;BME280;54319;52.038;4.640;2022-09-09T03:40:20;100669.56;;;13.66;100.00
67457;BME280;54319;52.038;4.640;2022-09-09T03:42:46;100665.06;;;13.70;100.00
67457;BME280;54319;52.038;4.640;2022-09-09T03:45:14;100664.34;;;13.65;100.00
67457;BME280;54319;52.038;4.640;2022-09-09T03:47:41;100668.88;;;13.59;100.00
67457;BME280;54319;52.038;4.640;2022-09-09T03:50:08;100670.75;;;13.54;100.00
67457;BME280;54319;52.038;4.640;2022-09-09T03:52:39;100671.78;;;13.49;100.00
67457;BME280;54319;52.038;4.640;2022-09-09T03:55:08;100664.84;;;13.46;100.00
67457;BME280;54319;52.038;4.640;2022-09-09T03:57:35;100672.78;;;13.43;100.00
67457;BME280;54319;52.038;4.640;2022-09-09T04:00:03;100668.47;;;13.40;100.00
67457;BME280;54319;52.038;4.640;2022-09-09T04:02:30;100664.13;;;13.39;100.00
67457;BME280;54319;52.038;4.640;2022-09-09T04:04:57;100661.50;;;13.39;100.00
67457;BME280;54319;52.038;4.640;2022-09-09T04:07:25;100652.78;;;13.37;100.00
67457;BME280;54319;52.038;4.640;2022-09-09T04:09:53;100651.97;;;13.34;100.00
67457;BME280;54319;52.038;4.640;2022-09-09T04:12:21;100646.75;;;13.32;100.00
67457;BME280;54319;52.038;4.640;2022-09-09T04:14:48;100649.31;;;13.35;100.00
67457;BME280;54319;52.038;4.640;2022-09-09T04:17:16;100638.84;;;13.32;100.00
67457;BME280;54319;52.038;4.640;2022-09-09T04:19:44;100641.53;;;13.31;100.00
67457;BME280;54319;52.038;4.640;2022-09-09T04:22:11;100643.28;;;13.30;100.00
67457;BME280;54319;52.038;4.640;2022-09-09T04:24:38;100645.03;;;13.31;100.00
67457;BME280;54319;52.038;4.640;2022-09-09T04:27:06;100635.38;;;13.30;100.00
67457;BME280;54319;52.038;4.640;2022-09-09T04:29:35;100639.81;;;13.28;100.00
67457;BME280;54319;52.038;4.640;2022-09-09T04:32:03;100639.06;;;13.23;100.00
67457;BME280;54319;52.038;4.640;2022-09-09T04:34:30;100632.00;;;13.25;100.00
67457;BME280;54319;52.038;4.640;2022-09-09T04:36:58;100631.00;;;13.31;100.00
67457;BME280;54319;52.038;4.640;2022-09-09T04:39:25;100631.88;;;13.31;100.00
67457;BME280;54319;52.038;4.640;2022-09-09T04:41:54;100630.94;;;13.34;100.00
67457;BME280;54319;52.038;4.640;2022-09-09T04:44:23;100633.66;;;13.31;100.00
67457;BME280;54319;52.038;4.640;2022-09-09T04:46:50;100632.81;;;13.29;100.00
67457;BME280;54319;52.038;4.640;2022-09-09T04:49:16;100628.38;;;13.31;100.00
67457;BME280;54319;52.038;4.640;2022-09-09T04:51:43;100623.16;;;13.29;100.00
67457;BME280;54319;52.038;4.640;2022-09-09T04:54:11;100620.59;;;13.25;100.00
67457;BME280;54319;52.038;4.640;2022-09-09T04:56:38;100611.03;;;13.22;100.00
67457;BME280;54319;52.038;4.640;2022-09-09T04:59:05;100618.94;;;13.20;100.00
67457;BME280;54319;52.038;4.640;2022-09-09T05:01:33;100614.53;;;13.23;100.00
67457;BME280;54319;52.038;4.640;2022-09-09T05:04:01;100622.41;;;13.23;100.00
67457;BME280;54319;52.038;4.640;2022-09-09T05:06:28;100626.88;;;13.19;100.00
67457;BME280;54319;52.038;4.640;2022-09-09T05:08:56;100625.13;;;13.19;100.00
67457;BME280;54319;52.038;4.640;2022-09-09T05:11:24;100624.22;;;13.20;100.00
67457;BME280;54319;52.038;4.640;2022-09-09T05:13:52;100616.22;;;13.24;100.00
67457;BME280;54319;52.038;4.640;2022-09-09T05:16:20;100619.75;;;13.24;100.00
67457;BME280;54319;52.038;4.640;2022-09-09T05:18:49;100611.78;;;13.26;100.00
67457;BME280;54319;52.038;4.640;2022-09-09T05:21:18;100616.19;;;13.25;100.00
67457;BME280;54319;52.038;4.640;2022-09-09T05:23:46;100614.41;;;13.27;100.00
67457;BME280;54319;52.038;4.640;2022-09-09T05:26:13;100610.84;;;13.30;100.00
67457;BME280;54319;52.038;4.640;2022-09-09T05:28:40;100613.34;;;13.34;100.00
67457;BME280;54319;52.038;4.640;2022-09-09T05:31:09;100614.94;;;13.41;100.00
67457;BME280;54319;52.038;4.640;2022-09-09T05:33:38;100616.69;;;13.41;100.00
67457;BME280;54319;52.038;4.640;2022-09-09T05:36:11;100616.47;;;13.50;100.00
67457;BME280;54319;52.038;4.640;2022-09-09T05:38:39;100612.06;;;13.51;100.00
67457;BME280;54319;52.038;4.640;2022-09-09T05:41:07;100606.72;;;13.54;100.00
67457;BME280;54319;52.038;4.640;2022-09-09T05:43:34;100607.50;;;13.57;100.00
67457;BME280;54319;52.038;4.640;2022-09-09T05:46:04;100614.19;;;13.69;100.00
67457;BME280;54319;52.038;4.640;2022-09-09T05:48:36;100621.00;;;13.76;100.00
67457;BME280;54319;52.038;4.640;2022-09-09T05:51:05;100614.59;;;13.87;100.00
67457;BME280;54319;52.038;4.640;2022-09-09T05:53:34;100616.00;;;13.98;100.00
67457;BME280;54319;52.038;4.640;2022-09-09T05:56:02;100616.59;;;14.08;100.00
67457;BME280;54319;52.038;4.640;2022-09-09T05:58:30;100618.97;;;14.17;100.00
67457;BME280;54319;52.038;4.640;2022-09-09T06:01:02;100625.69;;;14.28;100.00
67457;BME280;54319;52.038;4.640;2022-09-09T06:03:29;100615.66;;;14.40;100.00
67457;BME280;54319;52.038;4.640;2022-09-09T06:05:57;100613.88;;;14.41;100.00
67457;BME280;54319;52.038;4.640;2022-09-09T06:08:25;100618.03;;;14.48;100.00
67457;BME280;54319;52.038;4.640;2022-09-09T06:10:53;100614.41;;;14.52;100.00
67457;BME280;54319;52.038;4.640;2022-09-09T06:13:21;100625.63;;;14.60;100.00
67457;BME280;54319;52.038;4.640;2022-09-09T06:15:50;100613.84;;;14.71;100.00
67457;BME280;54319;52.038;4.640;2022-09-09T06:18:17;100618.22;;;14.72;100.00
67457;BME280;54319;52.038;4.640;2022-09-09T06:20:53;100620.56;;;14.81;100.00
67457;BME280;54319;52.038;4.640;2022-09-09T06:23:20;100623.25;;;14.79;100.00
67457;BME280;54319;52.038;4.640;2022-09-09T06:25:47;100631.13;;;14.81;99.52
67457;BME280;54319;52.038;4.640;2022-09-09T06:28:17;100622.09;;;14.88;99.60
67457;BME280;54319;52.038;4.640;2022-09-09T06:30:44;100625.66;;;14.87;99.42
67457;BME280;54319;52.038;4.640;2022-09-09T06:33:11;100628.13;;;14.92;99.51
67457;BME280;54319;52.038;4.640;2022-09-09T06:35:38;100632.25;;;15.00;98.66
67457;BME280;54319;52.038;4.640;2022-09-09T06:38:05;100623.41;;;15.01;99.10
67457;BME280;54319;52.038;4.640;2022-09-09T06:40:33;100626.66;;;15.10;98.05
67457;BME280;54319;52.038;4.640;2022-09-09T06:43:00;100630.16;;;15.10;97.93
67457;BME280;54319;52.038;4.640;2022-09-09T06:45:29;100633.75;;;15.07;97.91
67457;BME280;54319;52.038;4.640;2022-09-09T06:47:59;100628.53;;;15.06;97.70
67457;BME280;54319;52.038;4.640;2022-09-09T06:50:26;100628.41;;;15.11;97.78
67457;BME280;54319;52.038;4.640;2022-09-09T06:52:53;100624.63;;;15.18;96.97
67457;BME280;54319;52.038;4.640;2022-09-09T06:55:20;100627.16;;;15.21;96.99
67457;BME280;54319;52.038;4.640;2022-09-09T06:57:46;100629.81;;;15.21;97.67
67457;BME280;54319;52.038;4.640;2022-09-09T07:00:17;100630.31;;;15.32;96.65
67457;BME280;54319;52.038;4.640;2022-09-09T07:02:47;100625.81;;;15.34;96.87
67457;BME280;54319;52.038;4.640;2022-09-09T07:05:17;100632.00;;;15.35;96.58
67457;BME280;54319;52.038;4.640;2022-09-09T07:07:44;100629.19;;;15.39;95.57
67457;BME280;54319;52.038;4.640;2022-09-09T07:10:12;100629.13;;;15.41;95.57
67457;BME280;54319;52.038;4.640;2022-09-09T07:12:38;100629.94;;;15.43;95.12
67457;BME280;54319;52.038;4.640;2022-09-09T07:15:06;100630.69;;;15.46;95.25
67457;BME280;54319;52.038;4.640;2022-09-09T07:17:33;100632.50;;;15.46;94.82
67457;BME280;54319;52.038;4.640;2022-09-09T07:20:02;100627.78;;;15.54;94.37
67457;BME280;54319;52.038;4.640;2022-09-09T07:22:29;100626.28;;;15.47;94.05
67457;BME280;54319;52.038;4.640;2022-09-09T07:24:57;100625.84;;;15.59;93.20
67457;BME280;54319;52.038;4.640;2022-09-09T07:27:24;100620.25;;;15.68;93.29
67457;BME280;54319;52.038;4.640;2022-09-09T07:29:51;100621.72;;;15.77;93.08
67457;BME280;54319;52.038;4.640;2022-09-09T07:32:19;100623.38;;;15.80;93.67
67457;BME280;54319;52.038;4.640;2022-09-09T07:34:46;100621.50;;;15.83;92.32
67457;BME280;54319;52.038;4.640;2022-09-09T07:37:14;100631.28;;;15.81;91.92
67457;BME280;54319;52.038;4.640;2022-09-09T07:39:41;100631.94;;;15.86;91.12
67457;BME280;54319;52.038;4.640;2022-09-09T07:42:08;100637.03;;;15.93;90.86
67457;BME280;54319;52.038;4.640;2022-09-09T07:44:36;100633.69;;;15.87;90.83
67457;BME280;54319;52.038;4.640;2022-09-09T07:47:05;100639.78;;;15.90;90.80
67457;BME280;54319;52.038;4.640;2022-09-09T07:49:32;100634.53;;;15.88;91.13
67457;BME280;54319;52.038;4.640;2022-09-09T07:51:59;100635.34;;;15.90;91.10
67457;BME280;54319;52.038;4.640;2022-09-09T07:54:28;100640.56;;;15.92;90.57
67457;BME280;54319;52.038;4.640;2022-09-09T07:56:55;100639.72;;;15.91;90.55
67457;BME280;54319;52.038;4.640;2022-09-09T07:59:22;100632.97;;;15.82;91.22
67457;BME280;54319;52.038;4.640;2022-09-09T08:01:50;100639.38;;;15.77;91.64
67457;BME280;54319;52.038;4.640;2022-09-09T08:04:19;100636.09;;;15.68;92.20
67457;BME280;54319;52.038;4.640;2022-09-09T08:06:49;100631.88;;;15.63;91.85
67457;BME280;54319;52.038;4.640;2022-09-09T08:09:17;100643.09;;;15.69;91.52
67457;BME280;54319;52.038;4.640;2022-09-09T08:11:46;100640.25;;;15.76;91.62
67457;BME280;54319;52.038;4.640;2022-09-09T08:14:13;100635.16;;;15.71;92.19
67457;BME280;54319;52.038;4.640;2022-09-09T08:16:43;100643.75;;;15.76;91.53
67457;BME280;54319;52.038;4.640;2022-09-09T08:19:10;100640.09;;;15.80;91.40
67457;BME280;54319;52.038;4.640;2022-09-09T08:21:39;100636.56;;;15.81;91.39
67457;BME280;54319;52.038;4.640;2022-09-09T08:24:07;100640.22;;;15.77;91.08
67457;BME280;54319;52.038;4.640;2022-09-09T08:26:37;100640.38;;;15.73;91.85
67457;BME280;54319;52.038;4.640;2022-09-09T08:29:07;100636.88;;;15.72;91.48
67457;BME280;54319;52.038;4.640;2022-09-09T08:31:37;100631.34;;;15.78;91.85
67457;BME280;54319;52.038;4.640;2022-09-09T08:34:05;100642.91;;;15.76;91.60
67457;BME280;54319;52.038;4.640;2022-09-09T08:36:34;100636.91;;;15.71;92.24
67457;BME280;54319;52.038;4.640;2022-09-09T08:39:03;100651.59;;;15.79;91.99
67457;BME280;54319;52.038;4.640;2022-09-09T08:44:58;100644.72;;;15.74;91.68
67457;BME280;54319;52.038;4.640;2022-09-09T08:47:35;100653.59;;;15.73;91.92
67457;BME280;54319;52.038;4.640;2022-09-09T08:50:18;100645.50;;;15.77;92.26
67457;BME280;54319;52.038;4.640;2022-09-09T08:52:52;100641.06;;;15.78;92.19
67457;BME280;54319;52.038;4.640;2022-09-09T08:55:25;100653.94;;;15.87;91.75
67457;BME280;54319;52.038;4.640;2022-09-09T08:57:55;100648.75;;;15.85;92.25
67457;BME280;54319;52.038;4.640;2022-09-09T09:00:30;100646.81;;;15.89;91.24
67457;BME280;54319;52.038;4.640;2022-09-09T09:03:07;100653.25;;;15.82;92.96
67457;BME280;54319;52.038;4.640;2022-09-09T09:05:47;100645.72;;;15.69;95.56
67457;BME280;54319;52.038;4.640;2022-09-09T09:08:25;100646.59;;;15.70;96.28
67457;BME280;54319;52.038;4.640;2022-09-09T09:10:55;100661.75;;;15.65;97.12
67457;BME280;54319;52.038;4.640;2022-09-09T09:13:30;100646.34;;;15.53;97.64
67457;BME280;54319;52.038;4.640;2022-09-09T09:16:06;100651.00;;;15.44;98.61
67457;BME280;54319;52.038;4.640;2022-09-09T09:18:36;100657.00;;;15.50;99.21
67457;BME280;54319;52.038;4.640;2022-09-09T09:21:07;100654.63;;;15.42;99.07
67457;BME280;54319;52.038;4.640;2022-09-09T09:23:42;100655.38;;;15.45;98.66
67457;BME280;54319;52.038;4.640;2022-09-09T09:26:12;100658.94;;;15.44;98.56
67457;BME280;54319;52.038;4.640;2022-09-09T09:28:39;100658.00;;;15.45;99.58
67457;BME280;54319;52.038;4.640;2022-09-09T09:31:11;100665.88;;;15.47;100.00
67457;BME280;54319;52.038;4.640;2022-09-09T09:33:46;100659.94;;;15.40;100.00
67457;BME280;54319;52.038;4.640;2022-09-09T09:36:15;100656.50;;;15.38;100.00
67457;BME280;54319;52.038;4.640;2022-09-09T09:38:52;100648.50;;;15.41;100.00
67457;BME280;54319;52.038;4.640;2022-09-09T09:41:29;100645.91;;;15.40;100.00
67457;BME280;54319;52.038;4.640;2022-09-09T09:43:56;100644.06;;;15.42;100.00
67457;BME280;54319;52.038;4.640;2022-09-09T09:46:26;100654.19;;;15.54;100.00
67457;BME280;54319;52.038;4.640;2022-09-09T09:48:59;100645.72;;;15.71;100.00
67457;BME280;54319;52.038;4.640;2022-09-09T09:51:27;100637.78;;;15.71;100.00
67457;BME280;54319;52.038;4.640;2022-09-09T09:54:06;100648.25;;;15.74;100.00
67457;BME280;54319;52.038;4.640;2022-09-09T09:56:36;100643.63;;;15.81;100.00
67457;BME280;54319;52.038;4.640;2022-09-09T09:59:02;100642.00;;;16.00;100.00
67457;BME280;54319;52.038;4.640;2022-09-09T10:01:38;100639.94;;;16.08;99.14
67457;BME280;54319;52.038;4.640;2022-09-09T10:04:15;100631.66;;;16.41;99.67
67457;BME280;54319;52.038;4.640;2022-09-09T10:06:44;100636.00;;;16.66;98.38
67457;BME280;54319;52.038;4.640;2022-09-09T10:09:21;100638.94;;;16.58;95.55
67457;BME280;54319;52.038;4.640;2022-09-09T10:11:55;100637.13;;;16.60;96.05
67457;BME280;54319;52.038;4.640;2022-09-09T10:14:30;100642.84;;;16.71;93.62
67457;BME280;54319;52.038;4.640;2022-09-09T10:17:13;100635.13;;;16.65;94.12
67457;BME280;54319;52.038;4.640;2022-09-09T10:19:51;100640.25;;;16.70;93.70
67457;BME280;54319;52.038;4.640;2022-09-09T10:22:25;100637.50;;;16.73;93.18
67457;BME280;54319;52.038;4.640;2022-09-09T10:25:19;100641.59;;;16.82;91.72
67457;BME280;54319;52.038;4.640;2022-09-09T10:27:56;100636.88;;;16.66;92.85
67457;BME280;54319;52.038;4.640;2022-09-09T10:30:33;100647.47;;;16.66;92.81
67457;BME280;54319;52.038;4.640;2022-09-09T10:33:10;100640.47;;;16.64;93.99
67457;BME280;54319;52.038;4.640;2022-09-09T10:35:44;100645.34;;;16.75;94.90
67457;BME280;54319;52.038;4.640;2022-09-09T10:38:16;100646.75;;;16.85;94.91
67457;BME280;54319;52.038;4.640;2022-09-09T10:41:00;100637.00;;;17.07;91.89
67457;BME280;54319;52.038;4.640;2022-09-09T10:43:50;100649.69;;;16.99;91.91
67457;BME280;54319;52.038;4.640;2022-09-09T10:46:29;100647.66;;;17.06;92.41
67457;BME280;54319;52.038;4.640;2022-09-09T10:49:12;100640.63;;;17.05;92.18
67457;BME280;54319;52.038;4.640;2022-09-09T10:51:50;100644.91;;;16.87;91.89
67457;BME280;54319;52.038;4.640;2022-09-09T10:54:34;100649.16;;;16.91;92.80
67457;BME280;54319;52.038;4.640;2022-09-09T10:57:11;100636.78;;;16.68;92.78
67457;BME280;54319;52.038;4.640;2022-09-09T10:59:42;100629.72;;;16.68;92.32
67457;BME280;54319;52.038;4.640;2022-09-09T11:02:16;100643.25;;;16.61;92.09
67457;BME280;54319;52.038;4.640;2022-09-09T11:04:49;100643.84;;;16.45;94.01
67457;BME280;54319;52.038;4.640;2022-09-09T11:07:27;100642.47;;;16.35;94.54
67457;BME280;54319;52.038;4.640;2022-09-09T11:10:01;100636.50;;;16.30;96.42
67457;BME280;54319;52.038;4.640;2022-09-09T11:12:30;100641.66;;;16.33;97.07
67457;BME280;54319;52.038;4.640;2022-09-09T11:15:04;100630.91;;;16.38;97.38
67457;BME280;54319;52.038;4.640;2022-09-09T11:17:36;100641.63;;;16.35;98.22
67457;BME280;54319;52.038;4.640;2022-09-09T11:20:11;100638.50;;;16.47;96.64
67457;BME280;54319;52.038;4.640;2022-09-09T11:22:44;100647.94;;;16.54;96.13
67457;BME280;54319;52.038;4.640;2022-09-09T11:25:15;100638.63;;;16.44;96.72
67457;BME280;54319;52.038;4.640;2022-09-09T11:27:54;100647.25;;;16.49;96.52
67457;BME280;54319;52.038;4.640;2022-09-09T11:30:27;100644.53;;;16.73;95.92
67457;BME280;54319;52.038;4.640;2022-09-09T11:33:16;100650.31;;;16.84;96.87
67457;BME280;54319;52.038;4.640;2022-09-09T11:36:00;100650.13;;;16.88;93.43
67457;BME280;54319;52.038;4.640;2022-09-09T11:38:36;100646.94;;;17.02;93.64
67457;BME280;54319;52.038;4.640;2022-09-09T11:41:08;100646.94;;;17.23;92.89
67457;BME280;54319;52.038;4.640;2022-09-09T11:43:39;100647.34;;;17.34;93.15
67457;BME280;54319;52.038;4.640;2022-09-09T11:46:08;100645.41;;;17.39;92.39
67457;BME280;54319;52.038;4.640;2022-09-09T11:48:38;100639.16;;;17.40;91.92
67457;BME280;54319;52.038;4.640;2022-09-09T11:51:11;100645.72;;;17.31;91.05
67457;BME280;54319;52.038;4.640;2022-09-09T11:53:48;100645.34;;;17.19;90.19
67457;BME280;54319;52.038;4.640;2022-09-09T11:56:25;100643.09;;;17.09;91.65
67457;BME280;54319;52.038;4.640;2022-09-09T11:58:58;100648.28;;;17.13;92.92
67457;BME280;54319;52.038;4.640;2022-09-09T12:01:37;100650.06;;;16.90;93.75
67457;BME280;54319;52.038;4.640;2022-09-09T12:04:26;100643.34;;;17.03;92.73
67457;BME280;54319;52.038;4.640;2022-09-09T12:06:58;100650.19;;;16.87;93.80
67457;BME280;54319;52.038;4.640;2022-09-09T12:09:32;100640.81;;;16.78;95.02
67457;BME280;54319;52.038;4.640;2022-09-09T12:12:25;100657.72;;;16.74;96.41
67457;BME280;54319;52.038;4.640;2022-09-09T12:15:00;100647.56;;;16.63;96.36
67457;BME280;54319;52.038;4.640;2022-09-09T12:17:29;100643.00;;;16.45;98.01
67457;BME280;54319;52.038;4.640;2022-09-09T12:20:01;100659.28;;;16.34;99.47
67457;BME280;54319;52.038;4.640;2022-09-09T12:22:37;100658.22;;;16.15;100.00
67457;BME280;54319;52.038;4.640;2022-09-09T12:25:17;100637.63;;;16.01;100.00
67457;BME280;54319;52.038;4.640;2022-09-09T12:27:59;100644.31;;;15.86;100.00
67457;BME280;54319;52.038;4.640;2022-09-09T12:30:32;100645.38;;;15.80;100.00
67457;BME280;54319;52.038;4.640;2022-09-09T12:33:11;100638.59;;;15.73;100.00
67457;BME280;54319;52.038;4.640;2022-09-09T12:35:44;100665.00;;;15.73;100.00
67457;BME280;54319;52.038;4.640;2022-09-09T12:38:18;100653.66;;;15.69;100.00
67457;BME280;54319;52.038;4.640;2022-09-09T12:40:54;100654.44;;;15.73;100.00
67457;BME280;54319;52.038;4.640;2022-09-09T12:43:24;100665.78;;;15.77;100.00
67457;BME280;54319;52.038;4.640;2022-09-09T12:45:57;100643.88;;;15.73;100.00
67457;BME280;54319;52.038;4.640;2022-09-09T12:48:31;100646.81;;;15.64;100.00
67457;BME280;54319;52.038;4.640;2022-09-09T12:51:00;100660.03;;;15.64;100.00
67457;BME280;54319;52.038;4.640;2022-09-09T12:53:32;100666.22;;;15.63;100.00
67457;BME280;54319;52.038;4.640;2022-09-09T12:56:02;100659.91;;;15.67;100.00
67457;BME280;54319;52.038;4.640;2022-09-09T12:58:30;100657.84;;;15.77;100.00
67457;BME280;54319;52.038;4.640;2022-09-09T13:01:01;100650.63;;;15.82;100.00
67457;BME280;54319;52.038;4.640;2022-09-09T13:03:31;100656.50;;;15.90;100.00
67457;BME280;54319;52.038;4.640;2022-09-09T13:06:11;100652.06;;;15.91;100.00
67457;BME280;54319;52.038;4.640;2022-09-09T13:08:41;100653.34;;;16.04;100.00
67457;BME280;54319;52.038;4.640;2022-09-09T13:11:15;100646.97;;;16.09;100.00
67457;BME280;54319;52.038;4.640;2022-09-09T13:13:50;100652.19;;;16.11;100.00